createdAt,value
2023-11-11T00:00:43.223Z,66.15
2023-11-11T00:03:11.140Z,69.30
2023-11-11T00:05:38.759Z,70.95
2023-11-11T00:08:06.534Z,69.53
2023-11-11T00:10:34.970Z,74.07
2023-11-11T00:13:04.447Z,73.10
2023-11-11T00:15:35.069Z,71.03
2023-11-11T00:18:02.880Z,68.55
2023-11-11T00:20:30.547Z,68.25
2023-11-11T00:22:59.592Z,66.50
2023-11-11T00:25:27.216Z,65.18
2023-11-11T00:27:54.616Z,62.00
2023-11-11T00:30:23.251Z,65.25
2023-11-11T00:32:53.043Z,66.20
2023-11-11T00:35:21.885Z,74.93
2023-11-11T00:37:49.685Z,64.10
2023-11-11T00:40:17.288Z,70.38
2023-11-11T00:42:45.038Z,65.70
2023-11-11T00:45:14.745Z,61.92
2023-11-11T00:47:42.671Z,67.50
2023-11-11T00:50:10.900Z,64.35
2023-11-11T00:52:38.567Z,65.03
2023-11-11T00:55:08.842Z,67.53
2023-11-11T00:57:36.537Z,68.82
2023-11-11T01:00:05.211Z,65.88
2023-11-11T01:02:33.515Z,68.30
2023-11-11T01:05:01.009Z,64.18
2023-11-11T01:07:28.862Z,60.05
2023-11-11T01:09:56.282Z,62.63
2023-11-11T01:12:24.284Z,58.10
2023-11-11T01:14:51.879Z,60.63
2023-11-11T01:17:20.237Z,60.83
2023-11-11T01:19:48.118Z,58.58
2023-11-11T01:22:17.299Z,55.10
2023-11-11T01:24:45.118Z,55.88
2023-11-11T01:27:12.811Z,57.83
2023-11-11T01:29:43.346Z,61.45
2023-11-11T01:32:11.074Z,63.55
2023-11-11T01:34:38.570Z,63.65
2023-11-11T01:37:08.882Z,59.72
2023-11-11T01:39:36.973Z,63.67
2023-11-11T01:42:06.740Z,59.08
2023-11-11T01:44:34.339Z,54.63
2023-11-11T01:47:06.304Z,52.95
2023-11-11T01:49:34.747Z,44.15
2023-11-11T01:52:07.553Z,41.03
2023-11-11T01:54:39.225Z,36.00
2023-11-11T01:57:07.725Z,36.15
2023-11-11T01:59:37.041Z,34.80
2023-11-11T02:02:05.007Z,33.90
2023-11-11T02:04:33.064Z,30.00
2023-11-11T02:07:01.083Z,22.45
2023-11-11T02:09:28.940Z,22.90
2023-11-11T02:11:56.956Z,25.08
2023-11-11T02:14:25.149Z,22.63
2023-11-11T02:16:52.864Z,22.33
2023-11-11T02:19:20.421Z,21.70
2023-11-11T02:21:50.112Z,21.13
2023-11-11T02:24:19.704Z,20.35
2023-11-11T02:26:47.454Z,20.98
2023-11-11T02:29:15.130Z,23.23
2023-11-11T02:31:43.001Z,21.60
2023-11-11T02:34:10.361Z,19.65
2023-11-11T02:36:39.427Z,19.83
2023-11-11T02:39:07.665Z,22.13
2023-11-11T02:41:35.179Z,21.42
2023-11-11T02:44:04.153Z,21.65
2023-11-11T02:46:32.168Z,21.70
2023-11-11T02:48:59.660Z,25.10
2023-11-11T02:51:27.693Z,23.52
2023-11-11T02:53:55.449Z,26.95
2023-11-11T02:56:23.295Z,24.10
2023-11-11T02:58:50.852Z,28.88
2023-11-11T03:01:20.591Z,25.60
2023-11-11T03:03:48.364Z,28.25
2023-11-11T03:06:16.188Z,26.67
2023-11-11T03:08:44.422Z,28.35
2023-11-11T03:11:13.731Z,27.63
2023-11-11T03:13:41.908Z,28.70
2023-11-11T03:16:09.658Z,29.58
2023-11-11T03:18:37.566Z,30.08
2023-11-11T03:21:05.170Z,33.92
2023-11-11T03:23:32.809Z,29.38
2023-11-11T03:26:00.483Z,33.45
2023-11-11T03:28:28.312Z,30.10
2023-11-11T03:30:56.071Z,30.40
2023-11-11T03:33:23.792Z,31.15
2023-11-11T03:35:52.505Z,30.83
2023-11-11T03:38:23.181Z,27.70
2023-11-11T03:40:50.718Z,29.13
2023-11-11T03:43:18.703Z,24.88
2023-11-11T03:45:46.286Z,27.52
2023-11-11T03:48:15.169Z,25.90
2023-11-11T03:50:42.883Z,28.90
2023-11-11T03:53:10.948Z,24.88
2023-11-11T03:55:38.669Z,25.77
2023-11-11T03:58:06.271Z,25.42
2023-11-11T04:00:33.873Z,23.58
2023-11-11T04:03:01.807Z,19.20
2023-11-11T04:05:30.520Z,20.23
2023-11-11T04:07:57.931Z,18.75
2023-11-11T04:10:25.656Z,16.45
2023-11-11T04:12:53.542Z,18.25
2023-11-11T04:15:22.779Z,16.67
2023-11-11T04:17:50.449Z,17.60
2023-11-11T04:20:18.453Z,15.02
2023-11-11T04:22:46.371Z,15.85
2023-11-11T04:25:14.100Z,13.88
2023-11-11T04:27:46.128Z,16.35
2023-11-11T04:30:13.783Z,13.57
2023-11-11T04:32:42.181Z,15.20
2023-11-11T04:35:09.891Z,15.10
2023-11-11T04:37:37.557Z,14.85
2023-11-11T04:40:09.768Z,13.65
2023-11-11T04:42:37.530Z,12.40
2023-11-11T04:45:05.476Z,14.43
2023-11-11T04:47:32.964Z,15.63
2023-11-11T04:50:00.597Z,13.88
2023-11-11T04:52:28.778Z,15.00
2023-11-11T04:54:56.488Z,14.05
2023-11-11T04:57:24.317Z,16.42
2023-11-11T04:59:51.756Z,17.55
2023-11-11T05:02:19.294Z,17.83
2023-11-11T05:04:46.787Z,18.95
2023-11-11T05:07:14.242Z,20.02
2023-11-11T05:09:41.961Z,15.95
2023-11-11T05:12:10.182Z,20.02
2023-11-11T05:14:38.003Z,16.63
2023-11-11T05:17:08.991Z,16.20
2023-11-11T05:19:36.688Z,19.30
2023-11-11T05:22:04.565Z,16.13
2023-11-11T05:24:33.176Z,14.77
2023-11-11T05:27:00.816Z,16.02
2023-11-11T05:29:28.287Z,12.75
2023-11-11T05:31:56.024Z,12.95
2023-11-11T05:34:23.506Z,14.52
2023-11-11T05:36:52.086Z,12.40
2023-11-11T05:39:19.744Z,13.63
2023-11-11T05:41:47.403Z,13.05
2023-11-11T05:44:15.193Z,14.98
2023-11-11T05:46:42.883Z,13.40
2023-11-11T05:49:10.726Z,14.57
2023-11-11T05:51:38.459Z,12.90
2023-11-11T05:54:06.419Z,14.07
2023-11-11T05:56:34.086Z,17.20
2023-11-11T05:59:02.825Z,13.73
2023-11-11T06:01:30.517Z,17.48
2023-11-11T06:03:58.094Z,13.98
2023-11-11T06:06:25.982Z,17.08
2023-11-11T06:08:53.545Z,14.75
2023-11-11T06:11:22.545Z,15.02
2023-11-11T06:13:50.449Z,14.93
2023-11-11T06:16:18.227Z,13.63
2023-11-11T06:18:46.083Z,15.18
2023-11-11T06:21:13.731Z,16.58
2023-11-11T06:26:12.521Z,18.88
2023-11-11T06:28:40.999Z,15.68
2023-11-11T06:31:09.786Z,16.45
2023-11-11T06:33:37.876Z,15.73
2023-11-11T06:36:08.093Z,16.88
2023-11-11T06:38:35.761Z,15.52
2023-11-11T06:41:03.689Z,14.57
2023-11-11T06:43:31.598Z,17.23
2023-11-11T06:46:00.810Z,17.17
2023-11-11T06:48:28.978Z,18.02
2023-11-11T06:50:57.003Z,15.77
2023-11-11T06:53:24.878Z,16.08
2023-11-11T06:55:53.208Z,17.55
2023-11-11T06:58:22.018Z,16.08
2023-11-11T07:00:50.086Z,22.52
2023-11-11T07:03:17.879Z,15.23
2023-11-11T07:05:46.061Z,17.02
2023-11-11T07:08:14.380Z,14.82
2023-11-11T07:10:45.143Z,15.52
2023-11-11T07:13:14.552Z,16.55
2023-11-11T07:15:42.867Z,16.20
2023-11-11T07:18:11.563Z,16.20
2023-11-11T07:20:41.158Z,18.20
2023-11-11T07:23:08.918Z,16.77
2023-11-11T07:25:37.310Z,17.73
2023-11-11T07:28:05.765Z,17.60
2023-11-11T07:30:33.549Z,15.35
2023-11-11T07:33:02.534Z,17.35
2023-11-11T07:35:30.773Z,14.77
2023-11-11T07:37:58.523Z,16.20
2023-11-11T07:40:26.922Z,16.90
2023-11-11T07:42:57.326Z,16.63
2023-11-11T07:45:26.044Z,16.58
2023-11-11T07:47:54.385Z,18.38
2023-11-11T07:50:23.448Z,17.38
2023-11-11T07:52:51.349Z,15.90
2023-11-11T07:55:18.889Z,20.27
2023-11-11T08:00:19.882Z,23.10
2023-11-11T08:02:50.695Z,20.00
2023-11-11T08:05:18.676Z,17.88
2023-11-11T08:07:46.306Z,16.85
2023-11-11T08:10:14.340Z,16.58
2023-11-11T08:12:42.111Z,14.73
2023-11-11T08:15:10.154Z,16.73
2023-11-11T08:17:38.698Z,16.73
2023-11-11T08:20:06.722Z,15.40
2023-11-11T08:22:34.526Z,16.63
2023-11-11T08:25:02.056Z,15.18
2023-11-11T08:27:29.769Z,14.43
2023-11-11T08:29:57.478Z,14.43
2023-11-11T08:32:25.871Z,15.93
2023-11-11T08:34:54.195Z,15.07
2023-11-11T08:37:21.973Z,16.40
2023-11-11T08:39:50.849Z,14.43
2023-11-11T08:42:20.023Z,15.88
2023-11-11T08:44:50.585Z,16.48
2023-11-11T08:47:18.291Z,16.70
2023-11-11T08:49:46.089Z,16.35
2023-11-11T08:52:13.575Z,17.67
2023-11-11T08:54:41.042Z,18.50
2023-11-11T08:57:08.887Z,20.00
2023-11-11T08:59:36.430Z,22.98
2023-11-11T09:02:04.914Z,23.50
2023-11-11T09:04:32.534Z,25.15
2023-11-11T09:07:01.095Z,28.48
2023-11-11T09:09:30.099Z,27.73
2023-11-11T09:11:58.221Z,36.60
2023-11-11T09:14:25.992Z,50.00
2023-11-11T09:16:53.622Z,38.15
2023-11-11T09:19:21.283Z,43.65
2023-11-11T09:21:49.178Z,41.75
2023-11-11T09:24:16.690Z,46.53
2023-11-11T09:29:16.812Z,51.08
2023-11-11T09:31:44.884Z,51.60
2023-11-11T09:34:13.321Z,50.17
2023-11-11T09:36:41.146Z,53.30
2023-11-11T09:39:10.058Z,56.78
2023-11-11T09:41:37.782Z,57.22
2023-11-11T09:44:05.724Z,55.13
2023-11-11T09:46:37.550Z,54.08
2023-11-11T09:49:05.748Z,58.05
2023-11-11T09:51:33.992Z,65.45
2023-11-11T09:54:03.423Z,63.67
2023-11-11T09:59:03.113Z,66.88
2023-11-11T10:01:32.550Z,77.13
2023-11-11T10:04:00.254Z,77.43
2023-11-11T10:06:27.846Z,78.97
2023-11-11T10:08:56.283Z,79.50
2023-11-11T10:11:24.250Z,81.07
2023-11-11T10:13:54.910Z,85.07
2023-11-11T10:16:29.141Z,82.57
2023-11-11T10:18:59.569Z,77.65
2023-11-11T10:21:27.799Z,76.38
2023-11-11T10:23:59.457Z,74.25
2023-11-11T10:26:27.182Z,72.47
2023-11-11T10:28:54.882Z,71.63
2023-11-11T10:31:25.455Z,75.57
2023-11-11T10:33:53.857Z,67.95
2023-11-11T10:36:24.522Z,72.07
2023-11-11T10:38:55.735Z,67.10
2023-11-11T10:41:24.830Z,63.60
2023-11-11T10:43:53.349Z,68.18
2023-11-11T10:46:21.014Z,67.50
2023-11-11T10:48:48.606Z,63.55
2023-11-11T10:51:17.235Z,64.28
2023-11-11T10:53:45.598Z,67.30
2023-11-11T10:56:14.191Z,65.32
2023-11-11T10:58:43.204Z,62.03
2023-11-11T11:01:11.681Z,68.15
2023-11-11T11:03:40.008Z,65.43
2023-11-11T11:06:14.039Z,68.72
2023-11-11T11:09:00.550Z,65.28
2023-11-11T11:11:31.314Z,64.65
2023-11-11T11:14:01.582Z,68.07
2023-11-11T11:16:31.504Z,67.65
2023-11-11T11:18:59.859Z,63.67
2023-11-11T11:21:29.426Z,61.67
2023-11-11T11:23:57.530Z,64.10
2023-11-11T11:26:32.785Z,66.15
2023-11-11T11:29:16.967Z,62.10
2023-11-11T11:32:03.555Z,60.92
2023-11-11T11:34:31.607Z,64.22
2023-11-11T11:36:59.206Z,61.47
2023-11-11T11:39:30.666Z,61.70
2023-11-11T11:42:12.613Z,62.85
2023-11-11T11:44:40.396Z,67.60
2023-11-11T11:47:09.357Z,70.47
2023-11-11T11:49:37.316Z,65.00
2023-11-11T11:52:05.816Z,74.55
2023-11-11T11:54:33.451Z,67.63
2023-11-11T11:57:06.900Z,73.07
2023-11-11T11:59:35.672Z,66.90
2023-11-11T12:02:03.386Z,70.20
2023-11-11T12:04:31.251Z,72.60
2023-11-11T12:06:58.789Z,71.95
2023-11-11T12:09:27.972Z,69.82
2023-11-11T12:11:55.738Z,67.35
2023-11-11T12:14:23.532Z,67.97
2023-11-11T12:16:54.149Z,76.45
2023-11-11T12:19:23.019Z,69.78
2023-11-11T12:21:52.116Z,71.93
2023-11-11T12:24:26.567Z,68.13
2023-11-11T12:27:01.072Z,66.55
2023-11-11T12:29:30.389Z,76.03
2023-11-11T12:31:58.655Z,74.10
2023-11-11T12:34:32.503Z,73.50
2023-11-11T12:37:00.792Z,75.35
2023-11-11T12:39:30.166Z,76.35
2023-11-11T12:41:59.027Z,73.20
2023-11-11T12:44:27.799Z,77.22
2023-11-11T12:46:58.689Z,74.18
2023-11-11T12:49:29.001Z,72.38
2023-11-11T12:52:00.902Z,79.78
2023-11-11T12:54:33.943Z,77.60
2023-11-11T12:57:02.250Z,78.43
2023-11-11T12:59:29.834Z,79.53
2023-11-11T13:02:07.670Z,84.47
2023-11-11T13:04:35.664Z,82.70
2023-11-11T13:07:18.092Z,80.55
2023-11-11T13:09:47.432Z,81.28
2023-11-11T13:12:16.181Z,77.55
2023-11-11T13:14:45.369Z,83.65
2023-11-11T13:17:14.221Z,85.28
2023-11-11T13:19:42.002Z,84.85
2023-11-11T13:22:10.953Z,80.32
2023-11-11T13:24:41.730Z,78.97
2023-11-11T13:27:09.418Z,82.35
2023-11-11T13:29:37.466Z,82.00
2023-11-11T13:32:05.607Z,80.15
2023-11-11T13:34:34.998Z,87.50
2023-11-11T13:37:12.866Z,90.78
2023-11-11T13:39:52.787Z,92.10
2023-11-11T13:42:23.009Z,91.38
2023-11-11T13:44:51.595Z,88.75
2023-11-11T13:47:21.581Z,87.75
2023-11-11T13:49:49.840Z,94.95
2023-11-11T13:52:17.815Z,92.95
2023-11-11T13:54:45.625Z,93.43
2023-11-11T13:57:14.981Z,100.85
2023-11-11T13:59:42.689Z,98.53
2023-11-11T14:02:12.987Z,99.85
2023-11-11T14:04:47.090Z,97.65
2023-11-11T14:07:15.104Z,102.55
2023-11-11T14:09:42.740Z,99.75
2023-11-11T14:12:11.135Z,106.95
2023-11-11T14:14:40.749Z,104.55
2023-11-11T14:17:08.925Z,103.75
2023-11-11T14:19:36.703Z,104.20
2023-11-11T14:22:04.525Z,108.63
2023-11-11T14:24:32.183Z,112.78
2023-11-11T14:26:59.735Z,118.10
2023-11-11T14:29:27.498Z,118.95
2023-11-11T14:31:55.735Z,119.80
2023-11-11T14:34:23.691Z,120.47
2023-11-11T14:36:51.970Z,117.00
2023-11-11T14:39:20.214Z,122.80
2023-11-11T14:41:49.301Z,126.15
2023-11-11T14:44:16.880Z,128.02
2023-11-11T14:46:44.702Z,136.98
2023-11-11T14:49:12.547Z,130.65
2023-11-11T14:51:40.579Z,134.95
2023-11-11T14:54:10.736Z,132.80
2023-11-11T14:56:38.962Z,140.43
2023-11-11T14:59:08.113Z,133.70
2023-11-11T15:01:35.815Z,141.73
2023-11-11T15:04:04.782Z,141.85
2023-11-11T15:06:33.770Z,146.65
2023-11-11T15:09:01.893Z,137.57
2023-11-11T15:11:29.699Z,141.00
2023-11-11T15:14:03.795Z,146.80
2023-11-11T15:16:33.182Z,152.77
2023-11-11T15:19:02.752Z,146.05
2023-11-11T15:21:30.688Z,149.88
2023-11-11T15:23:58.948Z,155.65
2023-11-11T15:26:27.224Z,151.27
2023-11-11T15:28:54.793Z,158.05
2023-11-11T15:31:26.269Z,157.93
2023-11-11T15:33:56.444Z,151.77
2023-11-11T15:36:27.332Z,167.98
2023-11-11T15:38:56.661Z,167.05
2023-11-11T15:41:24.785Z,161.48
2023-11-11T15:43:52.552Z,168.88
2023-11-11T15:46:20.758Z,167.45
2023-11-11T15:48:48.276Z,170.88
2023-11-11T15:51:22.797Z,172.02
2023-11-11T15:53:53.932Z,172.93
2023-11-11T15:56:21.916Z,168.07
2023-11-11T15:58:49.989Z,172.23
2023-11-11T16:01:19.471Z,168.30
2023-11-11T16:03:50.837Z,164.75
2023-11-11T16:06:18.701Z,170.20
2023-11-11T16:08:47.000Z,163.60
2023-11-11T16:11:14.554Z,173.27
2023-11-11T16:13:42.079Z,172.15
2023-11-11T16:16:09.578Z,165.57
2023-11-11T16:18:38.341Z,167.20
2023-11-11T16:21:06.364Z,165.60
2023-11-11T16:23:33.987Z,174.20
2023-11-11T16:26:02.345Z,164.93
2023-11-11T16:28:29.992Z,164.02
2023-11-11T16:30:57.526Z,168.57
2023-11-11T16:33:25.259Z,157.80
2023-11-11T16:35:54.870Z,167.43
2023-11-11T16:38:22.448Z,159.05
2023-11-11T16:40:50.156Z,156.43
2023-11-11T16:43:17.643Z,159.15
2023-11-11T16:45:45.601Z,153.68
2023-11-11T16:48:14.011Z,161.77
2023-11-11T16:50:45.362Z,150.50
2023-11-11T16:53:13.419Z,147.98
2023-11-11T16:55:41.185Z,153.38
2023-11-11T16:58:09.674Z,139.38
2023-11-11T17:00:37.271Z,154.32
2023-11-11T17:03:05.600Z,152.95
2023-11-11T17:05:33.508Z,151.27
2023-11-11T17:08:01.326Z,153.63
2023-11-11T17:10:29.054Z,141.93
2023-11-11T17:12:59.705Z,152.55
2023-11-11T17:15:27.860Z,153.05
2023-11-11T17:17:55.622Z,152.75
2023-11-11T17:20:23.099Z,152.32
2023-11-11T17:22:51.290Z,149.85
2023-11-11T17:25:19.298Z,146.70
2023-11-11T17:27:46.694Z,162.20
2023-11-11T17:30:14.360Z,155.02
2023-11-11T17:32:42.058Z,176.52
2023-11-11T17:35:09.902Z,141.77
2023-11-11T17:37:39.052Z,111.32
2023-11-11T17:40:11.577Z,108.78
2023-11-11T17:42:40.197Z,110.72
2023-11-11T17:45:10.369Z,102.80
2023-11-11T17:47:38.249Z,105.05
2023-11-11T17:50:06.140Z,110.30
2023-11-11T17:52:33.884Z,114.55
2023-11-11T17:55:01.928Z,118.25
2023-11-11T17:57:30.065Z,114.10
2023-11-11T17:59:57.746Z,117.43
2023-11-11T18:02:28.971Z,110.57
2023-11-11T18:04:56.951Z,93.82
2023-11-11T18:07:24.503Z,85.75
2023-11-11T18:09:53.445Z,73.88
2023-11-11T18:12:21.400Z,70.70
2023-11-11T18:14:49.012Z,63.05
2023-11-11T18:17:16.529Z,55.80
2023-11-11T18:19:44.675Z,44.45
2023-11-11T18:22:12.365Z,38.05
2023-11-11T18:24:41.124Z,34.47
2023-11-11T18:27:09.081Z,30.63
2023-11-11T18:29:40.317Z,28.23
2023-11-11T18:32:08.971Z,45.72
2023-11-11T18:34:36.776Z,36.60
2023-11-11T18:37:06.025Z,42.90
2023-11-11T18:39:34.575Z,50.83
2023-11-11T18:42:02.713Z,54.08
2023-11-11T18:44:31.064Z,57.72
2023-11-11T18:46:58.983Z,60.65
2023-11-11T18:49:27.090Z,65.68
2023-11-11T18:51:54.872Z,65.57
2023-11-11T18:54:22.385Z,63.70
2023-11-11T18:56:50.632Z,68.70
2023-11-11T18:59:20.581Z,75.18
2023-11-11T19:01:49.073Z,80.13
2023-11-11T19:04:17.285Z,74.50
2023-11-11T19:06:44.768Z,77.22
2023-11-11T19:09:12.647Z,86.47
2023-11-11T19:11:45.147Z,95.82
2023-11-11T19:14:14.064Z,71.20
2023-11-11T19:16:42.536Z,61.13
2023-11-11T19:19:13.568Z,74.80
2023-11-11T19:21:41.152Z,45.05
2023-11-11T19:24:14.893Z,38.70
2023-11-11T19:26:43.157Z,33.05
2023-11-11T19:29:10.663Z,33.72
2023-11-11T19:31:38.597Z,27.42
2023-11-11T19:34:06.405Z,28.90
2023-11-11T19:36:34.001Z,29.08
2023-11-11T19:39:01.624Z,28.52
2023-11-11T19:41:29.227Z,27.02
2023-11-11T19:43:56.777Z,25.20
2023-11-11T19:46:26.620Z,22.42
2023-11-11T19:48:55.197Z,22.52
2023-11-11T19:51:27.183Z,23.52
2023-11-11T19:54:04.551Z,22.88
2023-11-11T19:56:32.126Z,21.25
2023-11-11T19:59:00.317Z,22.38
2023-11-11T20:01:27.964Z,23.17
2023-11-11T20:03:55.683Z,20.92
2023-11-11T20:06:23.925Z,22.42
2023-11-11T20:08:51.928Z,23.58
2023-11-11T20:11:24.199Z,23.50
2023-11-11T20:13:51.953Z,23.60
2023-11-11T20:16:22.921Z,25.80
2023-11-11T20:18:50.457Z,23.90
2023-11-11T20:21:18.484Z,21.70
2023-11-11T20:23:45.986Z,20.02
2023-11-11T20:26:14.214Z,20.77
2023-11-11T20:28:42.440Z,23.92
2023-11-11T20:31:10.655Z,19.23
2023-11-11T20:33:38.341Z,21.03
2023-11-11T20:36:07.723Z,22.00
2023-11-11T20:38:35.460Z,20.47
2023-11-11T20:41:03.160Z,20.77
2023-11-11T20:43:34.748Z,21.80
2023-11-11T20:46:02.504Z,20.60
2023-11-11T20:48:30.025Z,21.55
2023-11-11T20:50:57.735Z,24.55
2023-11-11T20:53:25.410Z,23.85
2023-11-11T20:55:53.157Z,24.77
2023-11-11T20:58:20.790Z,25.05
2023-11-11T21:00:48.547Z,28.63
2023-11-11T21:03:16.556Z,29.38
2023-11-11T21:05:44.299Z,28.95
2023-11-11T21:08:12.033Z,34.88
2023-11-11T21:10:39.915Z,34.58
2023-11-11T21:13:07.644Z,30.00
2023-11-11T21:15:35.501Z,31.13
2023-11-11T21:18:05.300Z,35.13
2023-11-11T21:20:33.063Z,33.65
2023-11-11T21:23:00.686Z,38.08
2023-11-11T21:25:28.427Z,38.00
2023-11-11T21:27:56.035Z,40.58
2023-11-11T21:30:23.891Z,39.30
2023-11-11T21:32:52.386Z,41.47
2023-11-11T21:35:20.462Z,45.42
2023-11-11T21:37:48.661Z,44.40
2023-11-11T21:40:16.304Z,42.67
2023-11-11T21:42:44.355Z,43.65
2023-11-11T21:45:12.374Z,42.25
2023-11-11T21:47:39.982Z,46.20
2023-11-11T21:50:08.210Z,45.83
2023-11-11T21:52:38.250Z,45.65
2023-11-11T21:55:08.076Z,45.35
2023-11-11T21:57:38.354Z,45.90
2023-11-11T22:00:10.519Z,48.80
2023-11-11T22:02:40.873Z,45.85
2023-11-11T22:05:11.333Z,50.75
2023-11-11T22:07:39.872Z,47.10
2023-11-11T22:10:09.453Z,50.30
2023-11-11T22:12:36.939Z,50.50
2023-11-11T22:15:04.760Z,49.58
2023-11-11T22:17:32.817Z,52.70
2023-11-11T22:20:01.228Z,52.92
2023-11-11T22:22:28.850Z,54.83
2023-11-11T22:24:56.863Z,49.17
2023-11-11T22:27:25.627Z,55.17
2023-11-11T22:29:54.046Z,52.17
2023-11-11T22:32:22.226Z,55.13
2023-11-11T22:34:49.986Z,56.80
2023-11-11T22:37:19.042Z,56.88
2023-11-11T22:39:46.948Z,61.90
2023-11-11T22:42:14.724Z,61.88
2023-11-11T22:44:42.646Z,61.72
2023-11-11T22:47:10.878Z,59.95
2023-11-11T22:49:41.366Z,62.45
2023-11-11T22:52:09.206Z,66.80
2023-11-11T22:54:36.636Z,64.20
2023-11-11T22:57:04.731Z,65.60
2023-11-11T22:59:32.392Z,68.63
2023-11-11T23:02:00.171Z,70.20
2023-11-11T23:04:28.445Z,74.45
2023-11-11T23:06:57.151Z,80.33
2023-11-11T23:09:24.688Z,90.13
2023-11-11T23:11:52.183Z,98.93
2023-11-11T23:14:20.031Z,97.53
2023-11-11T23:16:47.718Z,97.88
2023-11-11T23:19:15.483Z,102.80
2023-11-11T23:21:43.129Z,107.47
2023-11-11T23:24:11.120Z,117.35
2023-11-11T23:26:38.687Z,121.88
2023-11-11T23:29:06.929Z,122.43
2023-11-11T23:31:34.823Z,126.93
2023-11-11T23:34:02.865Z,130.00
2023-11-11T23:36:30.407Z,133.38
2023-11-11T23:38:58.354Z,131.95
2023-11-11T23:41:26.193Z,132.68
2023-11-11T23:43:53.839Z,129.70
2023-11-11T23:46:21.395Z,135.43
2023-11-11T23:48:50.282Z,133.38
2023-11-11T23:51:18.014Z,142.73
2023-11-11T23:53:45.800Z,137.57
2023-11-11T23:56:13.314Z,142.80
2023-11-11T23:58:41.203Z,146.33
